Time;durP1;ratioP1;P1;durP2;ratioP2;P2;SDS_P1;SDS_P2;PMS_P1;PMS_P2;Temp;Humidity;BMP_temperature;BMP_pressure;BME280_temperature;BME280_humidity;BME280_pressure;Samples;Min_cycle;Max_cycle;Signal;HPM_P1;HPM_P2
2023/03/05 00:01:31;;;;;;;4.32;1.73;;;;;;;;;;5025671;28;20121;-65
2023/03/05 00:03:57;;;;;;;4.20;1.58;;;;;;;;;;5006390;28;20068;-65
2023/03/05 00:06:24;;;;;;;6.05;1.98;;;;;;;;;;5010413;28;20126;-65
2023/03/05 00:08:52;;;;;;;5.10;1.70;;;;;;;;;;5020478;28;20049;-65
2023/03/05 00:11:18;;;;;;;4.70;1.63;;;;;;;;;;5023290;28;20041;-66
2023/03/05 00:13:44;;;;;;;6.20;1.92;;;;;;;;;;5027028;28;20567;-65
2023/03/05 00:16:12;;;;;;;2.88;1.38;;;;;;;;;;5010181;28;20164;-65
2023/03/05 00:18:38;;;;;;;3.90;1.55;;;;;;;;;;5021197;28;20044;-66
2023/03/05 00:21:05;;;;;;;4.22;1.92;;;4.20;99.90;;;;;;5021644;28;20038;-65
2023/03/05 00:23:31;;;;;;;6.25;2.03;;;;;;;;;;5009226;28;20518;-66
2023/03/05 00:26:00;;;;;;;6.43;2.17;;;;;;;;;;5027351;28;20479;-65
2023/03/05 00:28:26;;;;;;;5.18;2.13;;;;;;;;;;5023058;28;20038;-65
2023/03/05 00:30:52;;;;;;;5.57;2.35;;;;;;;;;;5023898;28;20045;-65
2023/03/05 00:33:18;;;;;;;3.20;1.83;;;;;;;;;;5006933;28;20107;-66
2023/03/05 00:35:45;;;;;;;6.43;2.08;;;;;;;;;;5009490;28;20042;-66
2023/03/05 00:38:12;;;;;;;3.42;1.70;;;;;;;;;;5027461;28;20520;-66
2023/03/05 00:40:40;;;;;;;5.00;1.85;;;3.80;99.90;;;;;;5009229;28;20045;-65
2023/03/05 00:43:06;;;;;;;4.00;1.70;;;;;;;;;;5008909;28;20045;-65
2023/03/05 00:45:32;;;;;;;5.00;1.98;;;;;;;;;;5027468;28;20041;-65
2023/03/05 00:47:58;;;;;;;6.72;1.85;;;;;;;;;;5005956;28;20472;-65
2023/03/05 00:50:24;;;;;;;4.30;1.60;;;3.90;99.90;;;;;;5005902;28;20174;-65
2023/03/05 00:52:51;;;;;;;11.02;1.80;;;;;;;;;;5025250;28;20052;-66
2023/03/05 00:55:17;;;;;;;4.22;1.98;;;;;;;;;;5005307;28;20736;-65
2023/03/05 00:57:43;;;;;;;5.05;1.52;;;;;;;;;;5005952;28;20077;-65
2023/03/05 01:00:09;;;;;;;8.05;2.03;;;;;;;;;;5020006;28;20129;-66
2023/03/05 01:02:35;;;;;;;5.63;2.15;;;;;;;;;;5007777;28;20041;-65
2023/03/05 01:05:01;;;;;;;4.72;1.50;;;;;;;;;;5026631;28;20091;-66
2023/03/05 01:07:27;;;;;;;9.38;1.88;;;;;;;;;;5025940;28;20111;-65
2023/03/05 01:09:53;;;;;;;6.07;2.17;;;;;;;;;;5007054;28;20045;-65
2023/03/05 01:12:19;;;;;;;6.32;1.73;;;;;;;;;;5006492;28;20087;-65
2023/03/05 01:14:45;;;;;;;4.53;1.90;;;4.10;99.90;;;;;;5026215;28;20259;-65
2023/03/05 01:17:10;;;;;;;5.25;1.77;;;;;;;;;;5008322;28;20532;-65
2023/03/05 01:19:36;;;;;;;9.60;1.50;;;;;;;;;;5008265;28;20046;-66
2023/03/05 01:22:02;;;;;;;2.67;1.60;;;;;;;;;;5008728;28;20041;-65
2023/03/05 01:24:29;;;;;;;6.38;1.58;;;;;;;;;;5026374;28;20045;-65
2023/03/05 01:26:55;;;;;;;3.13;1.20;;;;;;;;;;5008072;28;20061;-65
2023/03/05 01:29:21;;;;;;;7.00;1.38;;;;;;;;;;5000594;28;20140;-66
2023/03/05 01:31:47;;;;;;;6.07;1.58;;;;;;;;;;5023480;28;20140;-65
2023/03/05 01:34:14;;;;;;;4.65;1.70;;;;;;;;;;5025580;28;20099;-65
2023/03/05 01:36:40;;;;;;;5.13;1.60;;;3.90;99.90;;;;;;5009081;28;20536;-66
2023/03/05 01:39:06;;;;;;;5.07;1.60;;;;;;;;;;5021335;28;20329;-65
2023/03/05 01:41:32;;;;;;;5.03;1.30;;;;;;;;;;4997915;28;20128;-66
2023/03/05 01:43:59;;;;;;;3.05;1.40;;;;;;;;;;5007069;28;20132;-65
2023/03/05 01:46:29;;;;;;;4.45;2.30;;;;;;;;;;5026222;28;20458;-66
2023/03/05 01:49:18;;;;;;;3.45;1.55;;;4.10;99.90;;;;;;5002148;28;20263;-65
2023/03/05 01:51:47;;;;;;;7.47;1.83;;;;;;;;;;5005486;28;20064;-65
2023/03/05 01:54:14;;;;;;;5.55;1.85;;;;;;;;;;5007537;28;20038;-65
2023/03/05 01:56:41;;;;;;;3.80;1.60;;;4.10;99.90;;;;;;5025541;28;20099;-65
2023/03/05 01:59:07;;;;;;;3.75;1.80;;;;;;;;;;5008087;28;20391;-65
2023/03/05 02:01:40;;;;;;;6.03;1.80;;;3.80;99.90;;;;;;5024434;28;20045;-65
2023/03/05 02:04:07;;;;;;;3.70;1.65;;;;;;;;;;5025918;28;20102;-65
2023/03/05 02:06:33;;;;;;;5.68;2.08;;;;;;;;;;5025824;28;20056;-65
2023/03/05 02:08:59;;;;;;;8.43;2.33;;;;;;;;;;5022874;28;20490;-65
2023/03/05 02:11:25;;;;;;;6.55;1.88;;;;;;;;;;5025523;28;20055;-66
2023/03/05 02:13:51;;;;;;;5.97;2.15;;;;;;;;;;4998769;28;20511;-66
2023/03/05 02:16:18;;;;;;;6.80;1.70;;;;;;;;;;5025565;28;20091;-65
2023/03/05 02:18:44;;;;;;;4.38;1.73;;;;;;;;;;5001084;28;20132;-65
2023/03/05 02:21:10;;;;;;;3.38;1.70;;;3.70;99.90;;;;;;5005834;28;20037;-65
2023/03/05 02:23:37;;;;;;;6.45;2.30;;;;;;;;;;5025469;28;20041;-66
2023/03/05 02:26:05;;;;;;;8.07;1.75;;;3.70;99.90;;;;;;5008097;28;20071;-65
2023/03/05 02:28:36;;;;;;;8.35;2.15;;;3.70;99.90;;;;;;5000490;28;20053;-65
2023/03/05 02:31:08;;;;;;;6.88;2.13;;;;;;;;;;5001065;28;20076;-65
2023/03/05 02:33:34;;;;;;;6.13;2.10;;;;;;;;;;5025381;28;20045;-65
2023/03/05 02:36:00;;;;;;;7.72;1.98;;;;;;;;;;5025389;28;20043;-65
2023/03/05 02:38:26;;;;;;;5.18;1.75;;;;;;;;;;5003710;28;20049;-65
2023/03/05 02:40:52;;;;;;;4.07;2.17;;;;;;;;;;5022072;28;20033;-65
2023/03/05 02:43:18;;;;;;;6.57;1.50;;;;;;;;;;5025451;28;20525;-65
2023/03/05 02:45:44;;;;;;;4.35;1.58;;;;;;;;;;5025967;28;20042;-65
2023/03/05 02:48:10;;;;;;;4.28;1.58;;;;;;;;;;5007479;28;20045;-65
2023/03/05 02:50:38;;;;;;;2.60;1.73;;;;;;;;;;5024124;28;20056;-66
2023/03/05 02:53:04;;;;;;;4.65;1.60;;;;;;;;;;5007887;28;20454;-65
2023/03/05 02:55:30;;;;;;;6.95;1.60;;;;;;;;;;5007615;28;20049;-65
2023/03/05 02:57:55;;;;;;;4.38;1.90;;;4.10;99.90;;;;;;5014579;28;20064;-65
2023/03/05 03:00:21;;;;;;;3.75;1.30;;;;;;;;;;5004816;28;20041;-65
2023/03/05 03:02:47;;;;;;;4.50;1.58;;;;;;;;;;5025999;28;20049;-65
2023/03/05 03:05:13;;;;;;;5.40;1.35;;;;;;;;;;5025773;28;20037;-65
2023/03/05 03:07:40;;;;;;;4.40;1.73;;;;;;;;;;5014833;28;20084;-65
2023/03/05 03:10:06;;;;;;;3.70;1.80;;;;;;;;;;5021196;28;20125;-65
2023/03/05 03:12:36;;;;;;;4.25;1.40;;;;;;;;;;5025210;28;20041;-65
2023/03/05 03:15:01;;;;;;;7.18;1.65;;;3.80;99.90;;;;;;5007654;28;20045;-65
2023/03/05 03:17:27;;;;;;;4.05;1.33;;;;;;;;;;5005473;28;20041;-65
2023/03/05 03:19:53;;;;;;;2.20;1.13;;;;;;;;;;5002879;28;20495;-65
2023/03/05 03:22:19;;;;;;;2.08;1.65;;;;;;;;;;5006245;28;20513;-65
2023/03/05 03:24:45;;;;;;;2.92;1.60;;;;;;;;;;5024986;28;20042;-65
2023/03/05 03:27:11;;;;;;;4.95;1.20;;;;;;;;;;5010483;28;20059;-66
2023/03/05 03:29:37;;;;;;;5.50;1.30;;;3.70;99.90;;;;;;5000631;28;20503;-65
2023/03/05 03:32:03;;;;;;;4.28;1.50;;;;;;;;;;5006945;28;20132;-65
2023/03/05 03:34:29;;;;;;;4.28;1.65;;;;;;;;;;5028462;28;20170;-65
2023/03/05 03:36:55;;;;;;;2.72;1.05;;;3.40;99.90;;;;;;5028349;28;20590;-65
2023/03/05 03:39:21;;;;;;;2.10;0.95;;;;;;;;;;5002951;28;20618;-65
2023/03/05 03:41:48;;;;;;;4.22;1.10;;;;;;;;;;5008684;28;20088;-65
2023/03/05 03:44:16;;;;;;;3.45;1.10;;;;;;;;;;5010567;28;20048;-65
2023/03/05 03:46:45;;;;;;;3.13;1.30;;;;;;;;;;5028281;28;20045;-65
2023/03/05 03:49:13;;;;;;;4.13;1.30;;;;;;;;;;5005733;28;20116;-65
2023/03/05 03:51:39;;;;;;;3.70;1.65;;;;;;;;;;5007911;28;20053;-65
2023/03/05 03:54:05;;;;;;;3.65;1.33;;;;;;;;;;5028324;28;20103;-65
2023/03/05 03:56:31;;;;;;;3.13;1.20;;;;;;;;;;5009728;28;20504;-65
2023/03/05 03:58:57;;;;;;;2.33;1.13;;;3.70;99.90;;;;;;5010145;28;20046;-65
2023/03/05 04:01:22;;;;;;;1.73;1.15;;;3.60;99.90;;;;;;5028086;28;20059;-65
2023/03/05 04:03:48;;;;;;;4.78;1.30;;;;;;;;;;5027999;28;20125;-65
2023/03/05 04:06:15;;;;;;;2.08;1.13;;;;;;;;;;5010736;28;20056;-65
2023/03/05 04:08:41;;;;;;;2.33;1.30;;;;;;;;;;5009728;28;20136;-65
2023/03/05 04:11:07;;;;;;;2.38;1.15;;;;;;;;;;5028077;28;20072;-65
2023/03/05 04:13:33;;;;;;;1.52;0.73;;;;;;;;;;5010021;28;20095;-65
2023/03/05 04:15:59;;;;;;;4.05;1.30;;;;;;;;;;5026360;28;20037;-65
2023/03/05 04:18:25;;;;;;;1.77;1.02;;;;;;;;;;5006341;28;20037;-65
2023/03/05 04:20:51;;;;;;;4.68;1.10;;;;;;;;;;5006198;28;20467;-65
2023/03/05 04:23:17;;;;;;;2.47;1.05;;;;;;;;;;5027694;28;20037;-66
2023/03/05 04:25:42;;;;;;;1.30;1.17;;;3.70;99.90;;;;;;5009231;28;20132;-65
2023/03/05 04:28:08;;;;;;;2.55;1.00;;;;;;;;;;5027339;28;20041;-65
2023/03/05 04:30:34;;;;;;;3.80;1.55;;;;;;;;;;5027707;28;20077;-65
2023/03/05 04:33:01;;;;;;;3.65;1.08;;;;;;;;;;5008803;28;20080;-65
2023/03/05 04:35:26;;;;;;;4.80;1.23;;;;;;;;;;5010032;28;20095;-65
2023/03/05 04:37:52;;;;;;;3.70;1.20;;;;;;;;;;5006705;28;20037;-65
2023/03/05 04:40:18;;;;;;;2.28;1.20;;;3.50;99.90;;;;;;5023509;28;20112;-65
2023/03/05 04:42:44;;;;;;;5.38;1.27;;;;;;;;;;5008603;28;20670;-65
2023/03/05 04:45:11;;;;;;;4.65;1.10;;;;;;;;;;5026659;28;20045;-65
2023/03/05 04:47:37;;;;;;;6.25;1.15;;;;;;;;;;5005856;28;20482;-65
2023/03/05 04:50:04;;;;;;;4.28;1.23;;;3.40;99.90;;;;;;5022373;28;20137;-66
2023/03/05 04:52:30;;;;;;;2.22;1.27;;;;;;;;;;5008809;28;20056;-65
2023/03/05 04:54:56;;;;;;;9.63;2.70;;;;;;;;;;5009656;28;20065;-65
2023/03/05 04:57:22;;;;;;;2.17;1.20;;;;;;;;;;5026603;28;20299;-65
2023/03/05 04:59:48;;;;;;;7.40;1.85;;;3.50;99.90;;;;;;5024881;28;20124;-65
2023/03/05 05:02:13;;;;;;;5.50;1.60;;;3.60;99.90;;;;;;5008559;28;20045;-65
2023/03/05 05:04:43;;;;;;;4.50;1.60;;;;;;;;;;5009618;28;20490;-66
2023/03/05 05:07:09;;;;;;;6.93;1.88;;;;;;;;;;5024719;28;20041;-65
2023/03/05 05:09:35;;;;;;;4.15;1.65;;;;;;;;;;5021563;28;20052;-66
2023/03/05 05:12:01;;;;;;;8.02;1.67;;;;;;;;;;5026034;28;20045;-65
2023/03/05 05:14:27;;;;;;;5.88;1.90;;;;;;;;;;5023213;28;20052;-65
2023/03/05 05:16:53;;;;;;;3.88;1.77;;;;;;;;;;5003000;28;20064;-65
2023/03/05 05:19:19;;;;;;;3.83;1.63;;;3.60;99.90;;;;;;5003622;28;20056;-65
2023/03/05 05:21:45;;;;;;;2.60;1.40;;;;;;;;;;5021549;28;20120;-65
2023/03/05 05:24:11;;;;;;;3.70;1.80;;;;;;;;;;5009049;28;20395;-65
2023/03/05 05:26:36;;;;;;;3.38;1.42;;;;;;;;;;5009250;28;20052;-65
2023/03/05 05:29:02;;;;;;;2.53;1.55;;;;;;;;;;4990470;28;20048;-65
2023/03/05 05:31:28;;;;;;;3.85;1.80;;;;;;;;;;5024389;28;20554;-65
2023/03/05 05:33:54;;;;;;;1.92;1.65;;;3.60;99.90;;;;;;5004414;28;20121;-65
2023/03/05 05:36:21;;;;;;;3.55;1.58;;;;;;;;;;5025904;28;20064;-65
2023/03/05 05:38:47;;;;;;;3.58;1.50;;;;;;;;;;5003604;28;20049;-65
2023/03/05 05:41:14;;;;;;;3.97;1.48;;;;;;;;;;5023859;28;20512;-66
2023/03/05 05:43:40;;;;;;;6.75;1.65;;;;;;;;;;5008597;28;20124;-65
2023/03/05 05:46:11;;;;;;;3.63;1.45;;;;;;;;;;5007869;28;20079;-65
2023/03/05 05:48:37;;;;;;;3.95;1.38;;;;;;;;;;5007712;28;20053;-65
2023/03/05 05:51:07;;;;;;;4.53;2.00;;;;;;;;;;5007940;28;20064;-65
2023/03/05 05:53:33;;;;;;;4.15;1.70;;;;;;;;;;5007015;28;20052;-65
2023/03/05 05:55:59;;;;;;;3.95;1.92;;;3.50;99.90;;;;;;5007657;28;20647;-65
2023/03/05 05:58:25;;;;;;;3.25;1.75;;;;;;;;;;5004547;28;20059;-65
2023/03/05 06:00:51;;;;;;;6.45;2.55;;;;;;;;;;5019498;28;20029;-65
2023/03/05 06:03:17;;;;;;;4.00;2.00;;;;;;;;;;5008688;28;20458;-65
2023/03/05 06:05:43;;;;;;;6.68;1.70;;;;;;;;;;5007452;28;20041;-65
2023/03/05 06:08:09;;;;;;;6.60;2.35;;;;;;;;;;5007461;28;20056;-65
2023/03/05 06:10:35;;;;;;;3.63;1.65;;;;;;;;;;5025118;28;20578;-65
2023/03/05 06:13:01;;;;;;;5.47;1.88;;;;;;;;;;5025380;28;20056;-65
2023/03/05 06:15:27;;;;;;;4.93;2.00;;;;;;;;;;5007999;28;20411;-65
2023/03/05 06:17:53;;;;;;;4.93;1.50;;;;;;;;;;5025125;28;20120;-66
2023/03/05 06:20:19;;;;;;;4.57;1.58;;;3.40;99.90;;;;;;5025794;28;20463;-65
2023/03/05 06:22:46;;;;;;;6.65;1.88;;;;;;;;;;5025239;28;20448;-65
2023/03/05 06:25:12;;;;;;;5.85;1.63;;;;;;;;;;5025450;28;20048;-65
2023/03/05 06:27:38;;;;;;;8.02;1.75;;;;;;;;;;5005880;28;20450;-65
2023/03/05 06:30:05;;;;;;;4.47;2.45;;;;;;;;;;5021466;28;20470;-65
2023/03/05 06:32:30;;;;;;;3.85;1.40;;;3.10;99.90;;;;;;5025083;28;20496;-65
2023/03/05 06:34:56;;;;;;;8.50;1.70;;;;;;;;;;5006648;28;20045;-67
2023/03/05 06:37:22;;;;;;;5.32;1.80;;;;;;;;;;5021841;28;20128;-65
2023/03/05 06:39:48;;;;;;;6.88;1.45;;;;;;;;;;4985594;28;20088;-65
2023/03/05 06:42:16;;;;;;;3.67;1.88;;;;;;;;;;5005982;28;20037;-65
2023/03/05 06:44:43;;;;;;;4.45;1.38;;;;;;;;;;5007066;28;20111;-65
2023/03/05 06:47:13;;;;;;;5.15;1.90;;;;;;;;;;5007248;28;20041;-65
2023/03/05 06:49:39;;;;;;;2.03;1.40;;;;;;;;;;5003437;28;20063;-65
2023/03/05 06:52:05;;;;;;;4.55;1.40;;;3.00;99.90;;;;;;5006158;28;20463;-65
2023/03/05 06:54:32;;;;;;;6.45;1.48;;;;;;;;;;5023443;28;20060;-65
2023/03/05 06:56:58;;;;;;;4.53;1.50;;;;;;;;;;5007008;28;20510;-65
2023/03/05 06:59:24;;;;;;;4.30;2.38;;;;;;;;;;5006762;28;20038;-65
2023/03/05 07:01:50;;;;;;;4.78;1.42;;;;;;;;;;5024504;28;20387;-65
2023/03/05 07:04:16;;;;;;;2.92;1.48;;;3.10;99.90;;;;;;5024881;28;20033;-65
2023/03/05 07:06:42;;;;;;;4.53;1.45;;;;;;;;;;5028905;28;20038;-65
2023/03/05 07:09:11;;;;;;;6.68;1.70;;;;;;;;;;5022070;28;20036;-65
2023/03/05 07:11:37;;;;;;;6.03;1.55;;;;;;;;;;5026484;28;20052;-65
2023/03/05 07:14:03;;;;;;;3.38;1.60;;;;;;;;;;5028393;28;20482;-65
2023/03/05 07:16:31;;;;;;;2.80;1.38;;;3.20;99.90;;;;;;5010865;28;20164;-65
2023/03/05 07:18:58;;;;;;;5.00;1.20;;;;;;;;;;5023192;28;20084;-65
2023/03/05 07:21:27;;;;;;;5.22;1.73;;;3.40;99.90;;;;;;5026031;28;20044;-65
2023/03/05 07:23:54;;;;;;;4.07;1.33;;;;;;;;;;5027899;28;20041;-65
2023/03/05 07:26:20;;;;;;;4.45;1.40;;;;;;;;;;5027465;28;20040;-65
2023/03/05 07:28:46;;;;;;;4.90;1.92;;;3.30;99.90;;;;;;5009668;28;20049;-65
2023/03/05 07:31:18;;;;;;;2.60;1.50;;;;;;;;;;5027748;28;20034;-65
2023/03/05 07:33:44;;;;;;;3.80;1.30;;;;;;;;;;5027797;28;20067;-65
2023/03/05 07:36:10;;;;;;;3.75;1.67;;;;;;;;;;5028003;28;20045;-67
2023/03/05 07:38:37;;;;;;;2.85;1.70;;;;;;;;;;5009218;28;20038;-67
2023/03/05 07:41:07;;;;;;;2.40;1.98;;;;;;;;;;5026537;28;20037;-68
2023/03/05 07:43:33;;;;;;;5.95;1.55;;;;;;;;;;5029685;28;20045;-69
2023/03/05 07:45:59;;;;;;;7.88;1.70;;;;;;;;;;5012109;28;20048;-69
2023/03/05 07:48:25;;;;;;;3.90;1.63;;;;;;;;;;5008685;28;20045;-68
2023/03/05 07:50:59;;;;;;;5.90;1.75;;;;;;;;;;5007666;28;20460;-68
2023/03/05 07:53:25;;;;;;;5.55;1.73;;;;;;;;;;5013690;28;20060;-69
2023/03/05 07:55:51;;;;;;;5.57;1.50;;;;;;;;;;5009382;28;20038;-68
2023/03/05 07:58:17;;;;;;;6.07;1.52;;;;;;;;;;5004379;28;20044;-68
2023/03/05 08:00:43;;;;;;;4.50;2.00;;;5.10;99.90;;;;;;5025339;28;20037;-70
2023/03/05 08:03:09;;;;;;;7.57;1.77;;;;;;;;;;5013378;28;20037;-69
2023/03/05 08:05:38;;;;;;;6.03;2.33;;;;;;;;;;5010282;28;20041;-70
2023/03/05 08:08:04;;;;;;;6.55;2.47;;;;;;;;;;4997357;28;20049;-69
2023/03/05 08:10:30;;;;;;;3.47;1.75;;;;;;;;;;5012620;28;20049;-69
2023/03/05 08:12:56;;;;;;;2.92;1.27;;;;;;;;;;5013929;28;20056;-69
2023/03/05 08:15:22;;;;;;;2.80;1.85;;;;;;;;;;5013405;28;20493;-70
2023/03/05 08:17:48;;;;;;;4.13;1.63;;;;;;;;;;5008944;28;20085;-70
2023/03/05 08:20:14;;;;;;;3.83;1.95;;;;;;;;;;5012152;28;20091;-71
2023/03/05 08:22:40;;;;;;;5.18;2.30;;;;;;;;;;5030121;28;20041;-71
2023/03/05 08:25:06;;;;;;;3.75;1.50;;;;;;;;;;5031361;28;20049;-71
2023/03/05 08:27:32;;;;;;;4.13;1.23;;;7.70;99.90;;;;;;5028765;28;20049;-71
2023/03/05 08:29:58;;;;;;;5.00;1.83;;;;;;;;;;5026671;28;20029;-71
2023/03/05 08:32:23;;;;;;;6.20;1.88;;;8.60;99.90;;;;;;5029992;28;20038;-69
2023/03/05 08:34:49;;;;;;;9.27;2.17;;;;;;;;;;5010244;28;20151;-72
2023/03/05 08:37:15;;;;;;;5.97;1.70;;;;;;;;;;5010097;28;20050;-72
2023/03/05 08:39:41;;;;;;;4.45;1.45;;;;;;;;;;5009670;28;20487;-71
2023/03/05 08:42:07;;;;;;;5.50;1.60;;;9.90;99.90;;;;;;5008839;28;20045;-72
2023/03/05 08:44:32;;;;;;;6.97;1.80;;;10.70;99.90;;;;;;5009150;28;20415;-72
2023/03/05 08:46:58;;;;;;;5.95;1.98;;;;;;;;;;5008892;28;20046;-70
2023/03/05 08:49:24;;;;;;;3.88;1.50;;;11.60;99.90;;;;;;5019959;28;20840;-69
2023/03/05 08:51:50;;;;;;;6.00;2.00;;;;;;;;;;5024817;28;20133;-69
2023/03/05 08:54:16;;;;;;;5.20;1.20;;;;;;;;;;5008229;28;20119;-69
2023/03/05 08:56:42;;;;;;;6.43;2.03;;;;;;;;;;5009034;28;20056;-69
2023/03/05 08:59:09;;;;;;;8.40;2.30;;;12.20;99.90;;;;;;5007243;28;20399;-69
2023/03/05 09:01:34;;;;;;;4.68;1.27;;;12.10;99.90;;;;;;5008628;28;20809;-69
2023/03/05 09:04:00;;;;;;;9.13;1.70;;;;;;;;;;5008025;28;20037;-69
2023/03/05 09:06:27;;;;;;;4.45;1.50;;;;;;;;;;5026334;28;20033;-70
2023/03/05 09:08:53;;;;;;;7.53;1.63;;;12.20;99.90;;;;;;5020405;28;20080;-70
2023/03/05 09:11:19;;;;;;;4.55;1.48;;;12.20;99.90;;;;;;5005956;28;20128;-70
2023/03/05 09:13:44;;;;;;;4.35;1.50;;;12.20;99.90;;;;;;5008228;28;20042;-70
2023/03/05 09:16:13;;;;;;;7.32;1.65;;;12.30;99.90;;;;;;5008457;28;20505;-70
2023/03/05 09:18:39;;;;;;;6.57;1.60;;;;;;;;;;5022014;28;20050;-70
2023/03/05 09:21:11;;;;;;;6.63;1.35;;;12.60;99.90;;;;;;5022630;28;20037;-71
2023/03/05 09:23:37;;;;;;;8.63;1.27;;;;;;;;;;5014301;28;20053;-68
2023/03/05 09:26:08;;;;;;;8.15;1.77;;;12.90;99.90;;;;;;5013718;28;20452;-69
2023/03/05 09:28:34;;;;;;;9.35;1.88;;;13.20;99.90;;;;;;5022838;28;20087;-71
2023/03/05 09:31:06;;;;;;;5.72;1.30;;;13.80;99.90;;;;;;4993280;28;20072;-69
2023/03/05 09:33:32;;;;;;;4.13;1.25;;;;;;;;;;5008587;28;20519;-70
2023/03/05 09:35:59;;;;;;;6.78;1.27;;;13.30;99.90;;;;;;5029145;28;20128;-69
2023/03/05 09:38:25;;;;;;;3.35;1.17;;;;;;;;;;5001756;28;20395;-68
2023/03/05 09:41:06;;;;;;;5.85;1.52;;;14.40;99.90;;;;;;5005446;28;20048;-70
2023/03/05 09:43:38;;;;;;;7.72;1.38;;;14.50;99.90;;;;;;5027171;28;20141;-68
2023/03/05 09:46:31;;;;;;;3.80;1.05;;;14.90;99.90;;;;;;5008558;28;20052;-69
2023/03/05 09:48:57;;;;;;;5.70;1.60;;;;;;;;;;5025305;28;20132;-72
2023/03/05 09:51:33;;;;;;;6.85;1.50;;;15.50;99.90;;;;;;5008147;28;20139;-71
2023/03/05 09:54:11;;;;;;;5.57;1.23;;;15.20;99.90;;;;;;5008516;28;20095;-70
2023/03/05 09:56:41;;;;;;;5.80;1.10;;;15.20;99.90;;;;;;5009149;28;20789;-69
2023/03/05 09:59:24;;;;;;;3.10;0.93;;;16.70;99.90;;;;;;5027848;28;20455;-69
2023/03/05 10:01:52;;;;;;;7.93;1.13;;;17.30;99.90;;;;;;5024175;28;20080;-69
2023/03/05 10:04:39;;;;;;;4.90;1.17;;;17.90;99.90;;;;;;5025440;28;20037;-70
2023/03/05 10:07:17;;;;;;;6.93;0.82;;;18.50;99.90;;;;;;5023296;28;20057;-70
2023/03/05 10:09:59;;;;;;;4.82;1.23;;;17.10;99.90;;;;;;5017680;28;20041;-67
2023/03/05 10:12:41;;;;;;;3.28;0.90;;;15.90;99.90;;;;;;5005753;28;20033;-67
2023/03/05 10:15:49;;;;;;;3.97;0.70;;;14.50;99.90;;;;;;5008296;28;20713;-67
2023/03/05 10:18:26;;;;;;;2.95;0.95;;;14.70;99.90;;;;;;4995855;28;20165;-67
2023/03/05 10:21:07;;;;;;;4.80;1.10;;;15.60;99.90;;;;;;5000663;28;20068;-67
2023/03/05 10:23:39;;;;;;;3.20;0.98;;;15.10;99.90;;;;;;5025183;28;20048;-68
2023/03/05 10:26:42;;;;;;;2.50;0.90;;;15.90;99.90;;;;;;5025834;28;20051;-70
2023/03/05 10:29:21;;;;;;;5.32;0.82;;;15.80;99.90;;;;;;5015019;28;20069;-74
2023/03/05 10:32:16;;;;;;;3.35;0.85;;;15.20;99.90;;;;;;5002718;28;20049;-69
2023/03/05 10:35:10;;;;;;;2.42;0.77;;;14.20;99.90;;;;;;5022233;28;20148;-69
2023/03/05 10:38:02;;;;;;;2.42;0.73;;;12.90;99.90;;;;;;5006658;28;20055;-70
2023/03/05 10:40:43;;;;;;;1.45;0.80;;;13.30;99.90;;;;;;5006458;28;20095;-70
2023/03/05 10:43:40;;;;;;;3.15;0.75;;;12.80;99.90;;;;;;5006552;28;20486;-71
2023/03/05 10:46:15;;;;;;;2.95;0.88;;;12.20;99.90;;;;;;5006462;28;20457;-72
2023/03/05 10:48:43;;;;;;;4.55;1.35;;;;;;;;;;5022918;28;20045;-69
2023/03/05 10:51:15;;;;;;;2.50;0.70;;;10.70;99.90;;;;;;5022421;28;20067;-69
2023/03/05 10:53:58;;;;;;;2.78;0.73;;;;;;;;;;5005700;28;20495;-72
2023/03/05 10:56:27;;;;;;;2.33;0.68;;;10.30;99.90;;;;;;5023941;28;20708;-73
2023/03/05 10:58:53;;;;;;;3.33;1.00;;;;;;;;;;5001509;28;20064;-71
2023/03/05 11:01:29;;;;;;;3.78;1.15;;;;;;;;;;5023119;28;20029;-69
2023/03/05 11:04:06;;;;;;;4.63;1.20;;;9.80;99.90;;;;;;5014658;28;20045;-69
2023/03/05 11:06:39;;;;;;;4.05;0.95;;;9.90;99.90;;;;;;5012792;28;20047;-69
2023/03/05 11:09:28;;;;;;;4.53;1.00;;;9.80;99.90;;;;;;4998599;28;20132;-68
2023/03/05 11:12:07;;;;;;;4.18;1.25;;;;;;;;;;5009359;28;20045;-69
2023/03/05 11:14:34;;;;;;;8.48;1.10;;;;;;;;;;5006172;28;20132;-68
2023/03/05 11:17:01;;;;;;;5.25;1.67;;;;;;;;;;5023236;28;20380;-69
2023/03/05 11:19:31;;;;;;;3.35;1.10;;;9.90;99.90;;;;;;5024539;28;20045;-68
2023/03/05 11:22:24;;;;;;;2.53;1.23;;;9.80;99.90;;;;;;5006413;28;20041;-69
2023/03/05 11:25:05;;;;;;;4.95;1.30;;;;;;;;;;4993813;28;20852;-68
2023/03/05 11:27:33;;;;;;;5.13;1.23;;;;;;;;;;5023749;28;20041;-68
2023/03/05 11:29:59;;;;;;;5.90;1.02;;;;;;;;;;5006890;28;20080;-68
2023/03/05 11:32:27;;;;;;;2.03;1.25;;;;;;;;;;5025060;28;20126;-69
2023/03/05 11:34:54;;;;;;;2.88;0.80;;;;;;;;;;5024320;28;20049;-68
2023/03/05 11:37:27;;;;;;;4.22;1.02;;;;;;;;;;5006561;28;20049;-68
2023/03/05 11:40:19;;;;;;;3.13;1.17;;;10.20;99.90;;;;;;5001892;28;20053;-69
2023/03/05 11:42:49;;;;;;;6.45;1.52;;;;;;;;;;5022097;28;20076;-68
2023/03/05 11:45:18;;;;;;;4.35;1.33;;;10.10;99.90;;;;;;5024826;28;20063;-68
2023/03/05 11:47:50;;;;;;;3.53;1.30;;;;;;;;;;4987492;28;20093;-68
2023/03/05 11:50:16;;;;;;;1.80;1.10;;;;;;;;;;4997795;28;20104;-68
2023/03/05 11:52:49;;;;;;;2.03;0.90;;;;;;;;;;5027058;28;20423;-67
2023/03/05 11:55:18;;;;;;;3.42;1.45;;;10.80;99.90;;;;;;5010124;28;20551;-69
2023/03/05 11:57:54;;;;;;;2.92;1.30;;;;;;;;;;5025317;28;20037;-68
2023/03/05 12:00:27;;;;;;;7.32;1.40;;;10.40;99.90;;;;;;5003521;28;20071;-68
2023/03/05 12:02:54;;;;;;;4.10;1.10;;;;;;;;;;5005666;28;20099;-68
2023/03/05 12:05:20;;;;;;;3.60;1.25;;;;;;;;;;5003278;28;20042;-68
2023/03/05 12:07:49;;;;;;;6.05;1.50;;;;;;;;;;5025521;28;20045;-69
2023/03/05 12:10:19;;;;;;;6.93;1.70;;;;;;;;;;5020959;28;20878;-70
2023/03/05 12:12:48;;;;;;;4.40;1.33;;;;;;;;;;5004279;28;20506;-69
2023/03/05 12:15:17;;;;;;;5.20;1.40;;;;;;;;;;5021185;28;20038;-69
2023/03/05 12:18:01;;;;;;;4.03;1.45;;;;;;;;;;5025774;28;20060;-70
2023/03/05 12:20:40;;;;;;;2.90;1.23;;;8.50;99.90;;;;;;5027780;28;20049;-71
2023/03/05 12:23:11;;;;;;;6.00;1.30;;;;;;;;;;5009865;28;20533;-69
2023/03/05 12:25:46;;;;;;;5.18;1.70;;;;;;;;;;5012018;28;20041;-69
2023/03/05 12:28:15;;;;;;;5.40;1.50;;;8.50;99.90;;;;;;5004741;28;20115;-69
2023/03/05 12:30:41;;;;;;;5.50;1.45;;;;;;;;;;5007472;28;20051;-69
2023/03/05 12:33:25;;;;;;;6.88;2.22;;;;;;;;;;5027564;28;20049;-70
2023/03/05 12:35:51;;;;;;;5.33;1.30;;;9.00;99.90;;;;;;5010263;28;20045;-70
2023/03/05 12:38:18;;;;;;;8.45;2.42;;;;;;;;;;5007111;28;20054;-70
2023/03/05 12:40:44;;;;;;;4.50;1.50;;;9.30;99.90;;;;;;5004388;28;20128;-68
2023/03/05 12:43:29;;;;;;;3.05;1.20;;;;;;;;;;5027470;28;20246;-66
2023/03/05 12:46:21;;;;;;;3.10;1.27;;;9.90;99.90;;;;;;5027280;28;20041;-67
2023/03/05 12:48:47;;;;;;;4.60;1.30;;;;;;;;;;5019804;28;20156;-68
2023/03/05 12:51:26;;;;;;;5.53;1.27;;;9.90;99.90;;;;;;5024573;28;20136;-68
2023/03/05 12:53:52;;;;;;;5.47;1.30;;;;;;;;;;5010918;28;20061;-68
2023/03/05 12:56:23;;;;;;;3.90;1.05;;;;;;;;;;5007137;28;20053;-69
2023/03/05 12:58:51;;;;;;;3.80;1.13;;;;;;;;;;5027435;28;20041;-68
2023/03/05 13:01:28;;;;;;;4.95;1.38;;;9.50;99.90;;;;;;5011321;28;20132;-69
2023/03/05 13:03:56;;;;;;;3.50;1.23;;;;;;;;;;5010085;28;20088;-70
2023/03/05 13:06:29;;;;;;;3.85;1.42;;;9.00;99.90;;;;;;5009940;28;20045;-70
2023/03/05 13:09:03;;;;;;;6.00;1.30;;;;;;;;;;5026348;28;20454;-69
2023/03/05 13:11:35;;;;;;;2.70;1.33;;;9.00;99.90;;;;;;5009382;28;20154;-69
2023/03/05 13:14:01;;;;;;;4.78;1.48;;;;;;;;;;5026520;28;20045;-69
2023/03/05 13:16:29;;;;;;;4.97;1.23;;;;;;;;;;5005818;28;20052;-66
2023/03/05 13:18:57;;;;;;;3.95;1.30;;;;;;;;;;5019783;28;20203;-66
2023/03/05 13:21:28;;;;;;;3.72;1.20;;;;;;;;;;5006022;28;20528;-68
2023/03/05 13:23:59;;;;;;;4.30;1.38;;;9.00;99.90;;;;;;5026110;28;20140;-70
2023/03/05 13:26:26;;;;;;;5.07;1.67;;;;;;;;;;5008811;28;20090;-69
2023/03/05 13:29:11;;;;;;;2.03;0.90;;;;;;;;;;5017616;28;20045;-70
2023/03/05 13:31:47;;;;;;;4.70;1.63;;;8.60;99.90;;;;;;5008731;28;20480;-69
2023/03/05 13:34:32;;;;;;;4.07;1.23;;;;;;;;;;5008397;28;20728;-69
2023/03/05 13:37:16;;;;;;;3.67;1.27;;;;;;;;;;5023453;28;20055;-69
2023/03/05 13:40:05;;;;;;;2.83;1.67;;;;;;;;;;5005735;28;20037;-69
2023/03/05 13:42:33;;;;;;;4.35;1.17;;;;;;;;;;5004909;28;20049;-69
2023/03/05 13:45:18;;;;;;;3.88;1.23;;;;;;;;;;4990850;28;20048;-69
2023/03/05 13:47:51;;;;;;;4.38;1.80;;;;;;;;;;5017917;28;20053;-72
2023/03/05 13:50:28;;;;;;;6.80;1.70;;;;;;;;;;5017882;28;20049;-70
2023/03/05 13:52:54;;;;;;;5.97;2.47;;;7.80;99.90;;;;;;4988395;28;20084;-69
2023/03/05 13:55:21;;;;;;;6.28;1.58;;;;;;;;;;5023013;28;20041;-69
2023/03/05 13:57:49;;;;;;;7.35;1.55;;;;;;;;;;4997319;28;20119;-69
2023/03/05 14:00:29;;;;;;;9.13;1.80;;;;;;;;;;4996178;28;20511;-70
2023/03/05 14:02:57;;;;;;;5.10;1.70;;;;;;;;;;5022079;28;20129;-69
2023/03/05 14:05:23;;;;;;;10.02;1.60;;;;;;;;;;5021105;28;20588;-69
2023/03/05 14:07:50;;;;;;;6.93;1.98;;;;;;;;;;5018402;28;20037;-70
2023/03/05 14:10:30;;;;;;;4.30;1.40;;;;;;;;;;5017259;28;20046;-70
2023/03/05 14:12:57;;;;;;;3.83;1.52;;;;;;;;;;4988080;28;20053;-69
2023/03/05 14:15:33;;;;;;;3.30;1.17;;;;;;;;;;5004119;28;20446;-70
2023/03/05 14:18:15;;;;;;;3.17;1.30;;;;;;;;;;5004446;28;20041;-69
2023/03/05 14:20:57;;;;;;;7.82;1.45;;;;;;;;;;5004420;28;20042;-70